createdAt,value
2022-10-24T00:03:43.223Z,9.18
2022-10-24T00:08:44.672Z,7.85
2022-10-24T00:13:46.163Z,8.77
2022-10-24T00:18:47.677Z,9.77
2022-10-24T00:23:49.123Z,9.95
2022-10-24T00:28:50.641Z,7.30
2022-10-24T00:33:52.153Z,10.60
2022-10-24T00:38:53.661Z,8.45
2022-10-24T00:44:13.867Z,8.63
2022-10-24T00:49:16.339Z,10.20
2022-10-24T00:54:17.970Z,11.60
2022-10-24T00:59:19.422Z,8.07
2022-10-24T01:04:20.863Z,8.80
2022-10-24T01:09:50.983Z,8.55
2022-10-24T01:14:59.869Z,6.50
2022-10-24T01:20:23.022Z,11.63
2022-10-24T01:25:45.255Z,11.88
2022-10-24T01:30:49.392Z,12.15
2022-10-24T01:35:56.358Z,8.55
2022-10-24T01:41:00.277Z,7.85
2022-10-24T01:46:03.462Z,8.15
2022-10-24T01:51:04.965Z,8.70
2022-10-24T01:56:06.855Z,13.27
2022-10-24T02:01:10.497Z,11.88
2022-10-24T02:06:16.178Z,7.38
2022-10-24T02:11:17.625Z,9.45
2022-10-24T02:16:19.469Z,8.50
2022-10-24T02:21:49.299Z,11.27
2022-10-24T02:26:58.208Z,7.35
2022-10-24T02:31:59.672Z,6.85
2022-10-24T02:37:01.130Z,11.82
2022-10-24T02:42:02.867Z,11.52
2022-10-24T02:47:04.723Z,11.32
2022-10-24T02:52:06.344Z,9.35
2022-10-24T02:57:07.799Z,12.05
2022-10-24T03:02:09.259Z,11.10
2022-10-24T03:07:10.818Z,9.60
2022-10-24T03:12:16.003Z,8.88
2022-10-24T03:17:17.466Z,12.88
2022-10-24T03:22:19.142Z,9.10
2022-10-24T03:27:20.583Z,9.30
2022-10-24T03:32:22.141Z,8.65
2022-10-24T03:37:23.662Z,6.50
2022-10-24T03:42:25.137Z,7.03
2022-10-24T03:47:26.579Z,9.05
2022-10-24T03:52:28.029Z,8.88
2022-10-24T03:57:29.478Z,8.05
2022-10-24T04:02:30.933Z,10.77
2022-10-24T04:07:32.378Z,9.88
2022-10-24T04:12:33.843Z,10.43
2022-10-24T04:17:35.325Z,8.05
2022-10-24T04:22:36.770Z,9.32
2022-10-24T04:27:40.571Z,11.35
2022-10-24T04:32:42.197Z,10.38
2022-10-24T04:37:43.851Z,11.75
2022-10-24T04:42:45.463Z,9.48
2022-10-24T04:47:47.423Z,11.35
2022-10-24T04:52:49.075Z,10.48
2022-10-24T04:57:50.517Z,8.27
2022-10-24T05:02:54.155Z,13.00
2022-10-24T05:07:58.238Z,11.45
2022-10-24T05:12:59.731Z,11.93
2022-10-24T05:18:01.183Z,10.95
2022-10-24T05:23:02.647Z,10.27
2022-10-24T05:28:04.122Z,13.23
2022-10-24T05:33:05.669Z,11.60
2022-10-24T05:38:07.205Z,11.13
2022-10-24T05:43:08.665Z,12.40
2022-10-24T05:48:10.121Z,12.18
2022-10-24T05:53:12.961Z,16.65
2022-10-24T05:58:14.432Z,10.77
2022-10-24T06:03:15.883Z,10.48
2022-10-24T06:08:17.536Z,14.52
2022-10-24T06:13:19.057Z,11.73
2022-10-24T06:18:20.556Z,10.02
2022-10-24T06:23:22.055Z,10.25
2022-10-24T06:28:23.504Z,12.75
2022-10-24T06:33:24.960Z,14.45
2022-10-24T06:38:26.642Z,9.75
2022-10-24T06:43:28.094Z,12.15
2022-10-24T06:48:29.554Z,12.05
2022-10-24T06:53:31.025Z,10.35
2022-10-24T06:58:33.288Z,11.48
2022-10-24T07:08:36.255Z,8.65
2022-10-24T07:13:37.810Z,12.57
2022-10-24T07:18:39.353Z,12.25
2022-10-24T07:23:40.921Z,9.57
2022-10-24T07:28:43.065Z,10.38
2022-10-24T07:33:44.515Z,13.35
2022-10-24T07:38:46.954Z,9.70
2022-10-24T07:43:48.456Z,11.15
2022-10-24T07:48:50.381Z,12.43
2022-10-24T07:53:51.871Z,11.68
2022-10-24T07:58:53.411Z,13.05
2022-10-24T08:03:55.439Z,7.80
2022-10-24T08:08:56.945Z,13.30
2022-10-24T08:13:58.440Z,12.57
2022-10-24T08:18:59.938Z,11.75
2022-10-24T08:24:01.385Z,9.60
2022-10-24T08:29:04.382Z,11.05
2022-10-24T08:34:06.109Z,9.15
2022-10-24T08:39:07.562Z,10.00
2022-10-24T08:44:39.955Z,10.98
2022-10-24T08:50:10.485Z,9.60
2022-10-24T08:55:25.094Z,11.88
2022-10-24T09:00:40.680Z,9.73
2022-10-24T09:05:55.353Z,12.70
2022-10-24T09:11:03.942Z,10.50
2022-10-24T09:21:07.632Z,13.05
2022-10-24T09:26:16.750Z,14.50
2022-10-24T09:31:20.032Z,9.93
2022-10-24T09:36:21.901Z,11.18
2022-10-24T09:41:27.726Z,8.95
2022-10-24T09:46:37.080Z,10.13
2022-10-24T09:51:47.683Z,12.18
2022-10-24T09:56:54.386Z,13.00
2022-10-24T10:02:12.718Z,10.43
2022-10-24T10:07:17.163Z,11.65
2022-10-24T10:12:38.045Z,8.35
2022-10-24T10:17:39.514Z,15.75
2022-10-24T10:22:40.984Z,12.32
2022-10-24T10:27:42.584Z,15.77
2022-10-24T10:32:59.317Z,8.55
2022-10-24T10:38:38.025Z,14.63
2022-10-24T10:43:51.578Z,9.90
2022-10-24T10:49:10.913Z,9.40
2022-10-24T10:54:31.123Z,14.07
2022-10-24T10:59:38.694Z,13.63
2022-10-24T11:04:45.166Z,14.15
2022-10-24T11:09:48.143Z,14.40
2022-10-24T11:15:02.216Z,12.13
2022-10-24T11:20:37.350Z,9.80
2022-10-24T11:25:40.016Z,13.40
2022-10-24T11:30:56.782Z,10.32
2022-10-24T11:36:13.874Z,8.20
2022-10-24T11:41:23.914Z,14.90
2022-10-24T11:46:28.601Z,9.20
2022-10-24T11:51:29.885Z,12.90
2022-10-24T11:56:35.611Z,13.35
2022-10-24T12:01:55.153Z,12.25
2022-10-24T12:07:23.921Z,18.55
2022-10-24T12:12:44.903Z,14.02
2022-10-24T12:18:04.040Z,12.07
2022-10-24T12:23:05.526Z,14.07
2022-10-24T12:28:12.198Z,15.18
2022-10-24T12:33:25.190Z,10.07
2022-10-24T12:38:29.497Z,16.60
2022-10-24T12:43:42.775Z,11.32
2022-10-24T12:49:10.313Z,12.13
2022-10-24T12:54:11.588Z,14.20
2022-10-24T12:59:22.750Z,8.75
2022-10-24T13:04:49.241Z,12.27
2022-10-24T13:10:34.757Z,12.27
2022-10-24T13:15:56.952Z,15.27
2022-10-24T13:21:54.895Z,19.67
2022-10-24T13:26:56.676Z,12.88
2022-10-24T13:32:04.150Z,15.40
2022-10-24T13:37:12.564Z,18.67
2022-10-24T13:42:43.214Z,15.80
2022-10-24T13:47:45.481Z,18.13
2022-10-24T13:52:49.573Z,16.02
2022-10-24T13:58:11.074Z,16.23
2022-10-24T14:08:37.968Z,15.18
2022-10-24T14:13:44.609Z,19.20
2022-10-24T14:18:46.080Z,15.50
2022-10-24T14:23:55.793Z,13.95
2022-10-24T14:29:00.019Z,19.02
2022-10-24T14:34:03.021Z,20.20
2022-10-24T14:39:04.498Z,17.25
2022-10-24T14:44:06.275Z,18.10
2022-10-24T14:49:26.067Z,19.67
2022-10-24T14:54:31.567Z,19.88
2022-10-24T14:59:35.207Z,17.98
2022-10-24T15:04:38.729Z,19.52
2022-10-24T15:09:59.744Z,11.25
2022-10-24T15:15:27.751Z,23.30
2022-10-24T15:20:37.061Z,19.40
2022-10-24T15:25:42.056Z,18.35
2022-10-24T15:30:44.597Z,13.38
2022-10-24T15:35:46.053Z,21.30
2022-10-24T15:40:48.112Z,18.83
2022-10-24T15:45:49.581Z,18.17
2022-10-24T15:50:51.040Z,19.85
2022-10-24T15:55:52.493Z,16.75
2022-10-24T16:00:54.006Z,12.27
2022-10-24T16:05:56.035Z,17.70
2022-10-24T16:10:57.510Z,16.75
2022-10-24T16:15:58.993Z,14.93
2022-10-24T16:21:00.542Z,25.38
2022-10-24T16:26:02.003Z,20.08
2022-10-24T16:31:06.324Z,16.42
2022-10-24T16:36:07.880Z,20.48
2022-10-24T16:41:14.688Z,18.55
2022-10-24T16:46:17.804Z,17.83
2022-10-24T16:51:23.164Z,15.45
2022-10-24T16:56:24.711Z,17.90
2022-10-24T17:01:27.785Z,12.90
2022-10-24T17:06:29.827Z,15.43
2022-10-24T17:11:46.861Z,17.83
2022-10-24T17:16:48.341Z,18.20
2022-10-24T17:21:50.537Z,13.43
2022-10-24T17:26:52.060Z,15.85
2022-10-24T17:31:53.988Z,17.35
2022-10-24T17:37:05.437Z,17.15
2022-10-24T17:42:09.430Z,27.52
2022-10-24T17:47:11.013Z,18.65
2022-10-24T17:52:13.350Z,21.80
2022-10-24T18:02:16.162Z,22.13
2022-10-24T18:07:17.704Z,22.30
2022-10-24T18:12:19.151Z,20.77
2022-10-24T18:17:20.600Z,15.77
2022-10-24T18:22:22.062Z,17.67
2022-10-24T18:27:23.539Z,16.85
2022-10-24T18:32:24.984Z,20.30
2022-10-24T18:37:26.669Z,10.30
2022-10-24T18:42:38.333Z,21.95
2022-10-24T18:47:40.099Z,14.45
2022-10-24T18:53:04.408Z,23.85
2022-10-24T18:58:10.455Z,11.77
2022-10-24T19:03:36.810Z,20.02
2022-10-24T19:08:38.297Z,15.75
2022-10-24T19:13:39.859Z,13.35
2022-10-24T19:18:41.307Z,17.15
2022-10-24T19:23:42.771Z,18.05
2022-10-24T19:28:44.265Z,17.15
2022-10-24T19:33:45.737Z,19.30
2022-10-24T19:38:47.219Z,18.30
2022-10-24T19:43:48.693Z,11.52
2022-10-24T19:48:50.281Z,15.20
2022-10-24T19:53:54.588Z,13.70
2022-10-24T19:58:56.077Z,13.15
2022-10-24T20:03:57.575Z,15.18
2022-10-24T20:08:59.038Z,16.63
2022-10-24T20:14:00.492Z,15.57
2022-10-24T20:19:01.977Z,13.63
2022-10-24T20:24:03.530Z,16.77
2022-10-24T20:29:05.053Z,21.13
2022-10-24T20:34:09.711Z,15.82
2022-10-24T20:39:11.992Z,12.27
2022-10-24T20:49:14.815Z,20.45
2022-10-24T20:54:16.263Z,15.50
2022-10-24T20:59:17.790Z,10.68
2022-10-24T21:04:20.834Z,18.10
2022-10-24T21:09:22.555Z,11.63
2022-10-24T21:14:24.027Z,9.40
2022-10-24T21:19:26.655Z,13.77
2022-10-24T21:24:28.112Z,13.75
2022-10-24T21:29:33.917Z,20.48
2022-10-24T21:34:35.857Z,13.20
2022-10-24T21:39:37.305Z,19.50
2022-10-24T21:44:38.759Z,21.80
2022-10-24T21:49:40.220Z,21.45
2022-10-24T21:54:41.689Z,16.48
2022-10-24T21:59:43.178Z,12.45
2022-10-24T22:04:44.638Z,17.40
2022-10-24T22:09:46.117Z,17.10
2022-10-24T22:14:47.565Z,14.35
2022-10-24T22:19:49.007Z,15.40
2022-10-24T22:24:50.461Z,14.40
2022-10-24T22:29:51.911Z,16.48
2022-10-24T22:34:53.650Z,13.75
2022-10-24T22:39:55.368Z,14.52
2022-10-24T22:44:57.014Z,14.63
2022-10-24T22:50:10.520Z,19.02
2022-10-24T22:55:19.099Z,17.27
2022-10-24T23:00:20.833Z,16.13
2022-10-24T23:05:37.629Z,16.60
2022-10-24T23:10:39.956Z,15.98
2022-10-24T23:20:50.404Z,24.60
2022-10-24T23:26:03.641Z,19.60
2022-10-24T23:31:05.474Z,26.50
2022-10-24T23:36:07.404Z,19.63
2022-10-24T23:41:09.613Z,18.17
2022-10-24T23:46:31.817Z,23.13
2022-10-24T23:51:40.987Z,19.05
2022-10-24T23:56:42.650Z,17.35
